Keaau, Hawaii
Current Conditions -  °F | °C
As of 3:53 PM on Wednesday 22 Oct 2014 (Local Time) from PHTO Reporting Station
Overcast Overcast  
Wind Chill: 76°   Ceiling: 2100
Heat Index: 76°   Visibility: 10mi
Dew Point: 71°   Wind: 14mph
Humidity: 85%   Direction: 110°ESE
Pressure: 29.98"   Gusts: NA
Location:  19.62°N, 155.02°W
Report Text: PHTO 230153Z 11012KT 10SM SCT010 BKN021 OVC027 24/22 A2998 RMK AO2 SLP152 T02440217
Loading
Personal Weather Stations






























Interactive Weather Map
Tropical Storm Tracking
New forecast layout! Learn more

10-Day Weather Forecast

Advertisements
Track Severe Weather on mobile